sensor_id;sensor_type;location;lat;lon;timestamp;P1;durP1;ratioP1;P2;durP2;ratioP2
78995;SDS011;68401;47.192;-1.552;2023-06-14T00:00:35;14.82;;;9.98;;
78995;SDS011;68401;47.192;-1.552;2023-06-14T00:03:01;14.07;;;9.15;;
78995;SDS011;68401;47.192;-1.552;2023-06-14T00:05:28;10.45;;;9.25;;
78995;SDS011;68401;47.192;-1.552;2023-06-14T00:07:55;14.25;;;10.93;;
78995;SDS011;68401;47.192;-1.552;2023-06-14T00:10:20;13.88;;;10.15;;
78995;SDS011;68401;47.192;-1.552;2023-06-14T00:12:46;10.68;;;8.43;;
78995;SDS011;68401;47.192;-1.552;2023-06-14T00:15:11;13.40;;;8.95;;
78995;SDS011;68401;47.192;-1.552;2023-06-14T00:17:37;12.15;;;9.50;;
78995;SDS011;68401;47.192;-1.552;2023-06-14T00:20:04;12.80;;;10.20;;
78995;SDS011;68401;47.192;-1.552;2023-06-14T00:22:33;11.73;;;9.65;;
78995;SDS011;68401;47.192;-1.552;2023-06-14T00:24:59;12.70;;;9.68;;
78995;SDS011;68401;47.192;-1.552;2023-06-14T00:27:24;11.38;;;9.27;;
78995;SDS011;68401;47.192;-1.552;2023-06-14T00:29:50;14.23;;;9.63;;
78995;SDS011;68401;47.192;-1.552;2023-06-14T00:32:16;12.73;;;10.20;;
78995;SDS011;68401;47.192;-1.552;2023-06-14T00:34:43;11.88;;;10.32;;
78995;SDS011;68401;47.192;-1.552;2023-06-14T00:37:08;13.10;;;10.68;;
78995;SDS011;68401;47.192;-1.552;2023-06-14T00:39:33;13.93;;;10.57;;
78995;SDS011;68401;47.192;-1.552;2023-06-14T00:41:59;13.75;;;10.38;;
78995;SDS011;68401;47.192;-1.552;2023-06-14T00:44:25;13.13;;;10.13;;
78995;SDS011;68401;47.192;-1.552;2023-06-14T00:46:50;14.75;;;10.32;;
78995;SDS011;68401;47.192;-1.552;2023-06-14T00:49:16;11.93;;;9.88;;
78995;SDS011;68401;47.192;-1.552;2023-06-14T00:51:43;10.60;;;8.60;;
78995;SDS011;68401;47.192;-1.552;2023-06-14T00:54:08;12.50;;;9.55;;
78995;SDS011;68401;47.192;-1.552;2023-06-14T00:56:37;11.70;;;9.32;;
78995;SDS011;68401;47.192;-1.552;2023-06-14T00:59:02;11.77;;;10.07;;
78995;SDS011;68401;47.192;-1.552;2023-06-14T01:01:28;12.93;;;10.52;;
78995;SDS011;68401;47.192;-1.552;2023-06-14T01:03:54;14.38;;;10.10;;
78995;SDS011;68401;47.192;-1.552;2023-06-14T01:06:27;11.30;;;9.27;;
78995;SDS011;68401;47.192;-1.552;2023-06-14T01:11:31;11.93;;;10.63;;
78995;SDS011;68401;47.192;-1.552;2023-06-14T01:13:59;13.68;;;10.88;;
78995;SDS011;68401;47.192;-1.552;2023-06-14T01:16:27;14.38;;;11.00;;
78995;SDS011;68401;47.192;-1.552;2023-06-14T01:18:54;13.10;;;10.45;;
78995;SDS011;68401;47.192;-1.552;2023-06-14T01:21:24;15.15;;;11.35;;
78995;SDS011;68401;47.192;-1.552;2023-06-14T01:23:51;12.95;;;11.35;;
78995;SDS011;68401;47.192;-1.552;2023-06-14T01:26:18;12.63;;;11.27;;
78995;SDS011;68401;47.192;-1.552;2023-06-14T01:28:47;12.50;;;11.18;;
78995;SDS011;68401;47.192;-1.552;2023-06-14T01:31:17;13.27;;;10.93;;
78995;SDS011;68401;47.192;-1.552;2023-06-14T01:33:47;13.98;;;10.35;;
78995;SDS011;68401;47.192;-1.552;2023-06-14T01:36:16;14.25;;;10.85;;
78995;SDS011;68401;47.192;-1.552;2023-06-14T01:38:43;18.27;;;12.30;;
78995;SDS011;68401;47.192;-1.552;2023-06-14T01:41:09;15.02;;;12.15;;
78995;SDS011;68401;47.192;-1.552;2023-06-14T01:43:35;14.98;;;11.90;;
78995;SDS011;68401;47.192;-1.552;2023-06-14T01:46:00;18.17;;;12.48;;
78995;SDS011;68401;47.192;-1.552;2023-06-14T01:48:26;13.90;;;11.43;;
78995;SDS011;68401;47.192;-1.552;2023-06-14T01:50:52;16.58;;;12.85;;
78995;SDS011;68401;47.192;-1.552;2023-06-14T01:53:17;16.90;;;11.60;;
78995;SDS011;68401;47.192;-1.552;2023-06-14T01:55:43;15.80;;;11.48;;
78995;SDS011;68401;47.192;-1.552;2023-06-14T01:58:09;13.88;;;10.40;;
78995;SDS011;68401;47.192;-1.552;2023-06-14T02:00:35;16.33;;;13.07;;
78995;SDS011;68401;47.192;-1.552;2023-06-14T02:03:01;13.63;;;12.00;;
78995;SDS011;68401;47.192;-1.552;2023-06-14T02:07:55;14.63;;;11.27;;
78995;SDS011;68401;47.192;-1.552;2023-06-14T02:10:20;14.68;;;11.43;;
78995;SDS011;68401;47.192;-1.552;2023-06-14T02:12:46;15.93;;;12.55;;
78995;SDS011;68401;47.192;-1.552;2023-06-14T02:15:11;19.60;;;13.63;;
78995;SDS011;68401;47.192;-1.552;2023-06-14T02:17:46;14.80;;;12.20;;
78995;SDS011;68401;47.192;-1.552;2023-06-14T02:20:14;15.23;;;12.98;;
78995;SDS011;68401;47.192;-1.552;2023-06-14T02:22:40;13.75;;;11.25;;
78995;SDS011;68401;47.192;-1.552;2023-06-14T02:25:06;14.55;;;11.77;;
78995;SDS011;68401;47.192;-1.552;2023-06-14T02:27:32;17.08;;;13.63;;
78995;SDS011;68401;47.192;-1.552;2023-06-14T02:29:57;18.73;;;13.73;;
78995;SDS011;68401;47.192;-1.552;2023-06-14T02:32:23;17.80;;;13.38;;
78995;SDS011;68401;47.192;-1.552;2023-06-14T02:34:48;14.35;;;11.95;;
78995;SDS011;68401;47.192;-1.552;2023-06-14T02:37:15;15.85;;;12.25;;
78995;SDS011;68401;47.192;-1.552;2023-06-14T02:39:41;17.20;;;14.23;;
78995;SDS011;68401;47.192;-1.552;2023-06-14T02:42:06;17.15;;;12.95;;
78995;SDS011;68401;47.192;-1.552;2023-06-14T02:44:32;18.33;;;12.63;;
78995;SDS011;68401;47.192;-1.552;2023-06-14T02:46:57;16.30;;;12.98;;
78995;SDS011;68401;47.192;-1.552;2023-06-14T02:49:23;17.17;;;12.75;;
78995;SDS011;68401;47.192;-1.552;2023-06-14T02:51:49;14.75;;;11.98;;
78995;SDS011;68401;47.192;-1.552;2023-06-14T02:54:14;15.18;;;12.63;;
78995;SDS011;68401;47.192;-1.552;2023-06-14T02:56:40;16.77;;;13.70;;
78995;SDS011;68401;47.192;-1.552;2023-06-14T02:59:06;18.95;;;13.63;;
78995;SDS011;68401;47.192;-1.552;2023-06-14T03:01:32;15.80;;;13.02;;
78995;SDS011;68401;47.192;-1.552;2023-06-14T03:06:29;17.45;;;13.07;;
78995;SDS011;68401;47.192;-1.552;2023-06-14T03:08:59;18.92;;;14.38;;
78995;SDS011;68401;47.192;-1.552;2023-06-14T03:11:26;20.13;;;15.88;;
78995;SDS011;68401;47.192;-1.552;2023-06-14T03:13:52;19.30;;;14.35;;
78995;SDS011;68401;47.192;-1.552;2023-06-14T03:16:18;22.23;;;16.20;;
78995;SDS011;68401;47.192;-1.552;2023-06-14T03:18:46;18.05;;;15.30;;
78995;SDS011;68401;47.192;-1.552;2023-06-14T03:21:13;17.70;;;13.77;;
78995;SDS011;68401;47.192;-1.552;2023-06-14T03:23:41;18.17;;;14.40;;
78995;SDS011;68401;47.192;-1.552;2023-06-14T03:26:07;18.35;;;14.60;;
78995;SDS011;68401;47.192;-1.552;2023-06-14T03:28:33;17.05;;;13.90;;
78995;SDS011;68401;47.192;-1.552;2023-06-14T03:30:58;17.60;;;14.88;;
78995;SDS011;68401;47.192;-1.552;2023-06-14T03:33:24;21.73;;;15.38;;
78995;SDS011;68401;47.192;-1.552;2023-06-14T03:35:50;22.67;;;15.73;;
78995;SDS011;68401;47.192;-1.552;2023-06-14T03:38:16;20.90;;;16.40;;
78995;SDS011;68401;47.192;-1.552;2023-06-14T03:40:41;17.92;;;15.27;;
78995;SDS011;68401;47.192;-1.552;2023-06-14T03:43:07;19.27;;;15.15;;
78995;SDS011;68401;47.192;-1.552;2023-06-14T03:45:32;19.27;;;15.02;;
78995;SDS011;68401;47.192;-1.552;2023-06-14T03:47:58;16.23;;;13.48;;
78995;SDS011;68401;47.192;-1.552;2023-06-14T03:50:25;22.95;;;15.10;;
78995;SDS011;68401;47.192;-1.552;2023-06-14T03:52:52;19.90;;;16.05;;
78995;SDS011;68401;47.192;-1.552;2023-06-14T03:55:17;17.25;;;14.57;;
78995;SDS011;68401;47.192;-1.552;2023-06-14T03:57:43;20.40;;;15.68;;
78995;SDS011;68401;47.192;-1.552;2023-06-14T04:00:09;19.10;;;14.40;;
78995;SDS011;68401;47.192;-1.552;2023-06-14T04:02:34;19.67;;;14.45;;
78995;SDS011;68401;47.192;-1.552;2023-06-14T04:05:01;20.75;;;14.82;;
78995;SDS011;68401;47.192;-1.552;2023-06-14T04:07:27;19.52;;;15.82;;
78995;SDS011;68401;47.192;-1.552;2023-06-14T04:09:53;19.92;;;15.38;;
78995;SDS011;68401;47.192;-1.552;2023-06-14T04:12:19;19.25;;;15.40;;
78995;SDS011;68401;47.192;-1.552;2023-06-14T04:14:45;19.85;;;15.50;;
78995;SDS011;68401;47.192;-1.552;2023-06-14T04:17:10;18.45;;;14.07;;
78995;SDS011;68401;47.192;-1.552;2023-06-14T04:19:36;20.70;;;15.82;;
78995;SDS011;68401;47.192;-1.552;2023-06-14T04:22:01;23.92;;;17.42;;
78995;SDS011;68401;47.192;-1.552;2023-06-14T04:24:27;20.83;;;16.90;;
78995;SDS011;68401;47.192;-1.552;2023-06-14T04:26:57;26.20;;;18.60;;
78995;SDS011;68401;47.192;-1.552;2023-06-14T04:29:23;22.42;;;16.52;;
78995;SDS011;68401;47.192;-1.552;2023-06-14T04:31:49;24.13;;;17.20;;
78995;SDS011;68401;47.192;-1.552;2023-06-14T04:34:16;21.70;;;17.80;;
78995;SDS011;68401;47.192;-1.552;2023-06-14T04:36:42;24.77;;;18.38;;
78995;SDS011;68401;47.192;-1.552;2023-06-14T04:39:17;25.83;;;18.85;;
78995;SDS011;68401;47.192;-1.552;2023-06-14T04:41:43;24.60;;;18.75;;
78995;SDS011;68401;47.192;-1.552;2023-06-14T04:44:09;26.30;;;20.08;;
78995;SDS011;68401;47.192;-1.552;2023-06-14T04:46:35;25.98;;;18.52;;
78995;SDS011;68401;47.192;-1.552;2023-06-14T04:49:09;32.95;;;18.90;;
78995;SDS011;68401;47.192;-1.552;2023-06-14T04:51:35;25.65;;;19.20;;
78995;SDS011;68401;47.192;-1.552;2023-06-14T04:54:02;29.45;;;18.88;;
78995;SDS011;68401;47.192;-1.552;2023-06-14T04:56:28;23.70;;;18.30;;
78995;SDS011;68401;47.192;-1.552;2023-06-14T04:58:54;22.02;;;17.52;;
78995;SDS011;68401;47.192;-1.552;2023-06-14T05:01:21;23.52;;;18.02;;
78995;SDS011;68401;47.192;-1.552;2023-06-14T05:03:48;23.70;;;17.85;;
78995;SDS011;68401;47.192;-1.552;2023-06-14T05:06:14;22.08;;;18.58;;
78995;SDS011;68401;47.192;-1.552;2023-06-14T05:08:40;23.42;;;16.83;;
78995;SDS011;68401;47.192;-1.552;2023-06-14T05:11:06;21.17;;;17.15;;
78995;SDS011;68401;47.192;-1.552;2023-06-14T05:13:31;22.65;;;17.42;;
78995;SDS011;68401;47.192;-1.552;2023-06-14T05:15:57;22.58;;;18.08;;
78995;SDS011;68401;47.192;-1.552;2023-06-14T05:18:24;22.83;;;18.05;;
78995;SDS011;68401;47.192;-1.552;2023-06-14T05:20:50;24.95;;;19.48;;
78995;SDS011;68401;47.192;-1.552;2023-06-14T05:23:15;22.52;;;17.42;;
78995;SDS011;68401;47.192;-1.552;2023-06-14T05:25:44;19.67;;;16.65;;
78995;SDS011;68401;47.192;-1.552;2023-06-14T05:28:10;20.98;;;17.75;;
78995;SDS011;68401;47.192;-1.552;2023-06-14T05:30:37;22.30;;;18.60;;
78995;SDS011;68401;47.192;-1.552;2023-06-14T05:33:03;20.67;;;16.05;;
78995;SDS011;68401;47.192;-1.552;2023-06-14T05:35:29;21.05;;;16.10;;
78995;SDS011;68401;47.192;-1.552;2023-06-14T05:37:54;20.98;;;16.98;;
78995;SDS011;68401;47.192;-1.552;2023-06-14T05:40:19;19.70;;;16.17;;
78995;SDS011;68401;47.192;-1.552;2023-06-14T05:42:45;19.20;;;15.73;;
78995;SDS011;68401;47.192;-1.552;2023-06-14T05:45:11;18.27;;;14.88;;
78995;SDS011;68401;47.192;-1.552;2023-06-14T05:47:36;21.95;;;16.23;;
78995;SDS011;68401;47.192;-1.552;2023-06-14T05:50:02;20.45;;;16.98;;
78995;SDS011;68401;47.192;-1.552;2023-06-14T05:52:27;21.80;;;16.60;;
78995;SDS011;68401;47.192;-1.552;2023-06-14T05:54:54;28.92;;;17.38;;
78995;SDS011;68401;47.192;-1.552;2023-06-14T05:57:20;17.83;;;15.32;;
78995;SDS011;68401;47.192;-1.552;2023-06-14T05:59:45;21.50;;;17.88;;
78995;SDS011;68401;47.192;-1.552;2023-06-14T06:02:10;22.50;;;17.95;;
78995;SDS011;68401;47.192;-1.552;2023-06-14T06:04:36;20.67;;;16.08;;
78995;SDS011;68401;47.192;-1.552;2023-06-14T06:07:01;18.40;;;16.58;;
78995;SDS011;68401;47.192;-1.552;2023-06-14T06:09:29;18.70;;;16.70;;
78995;SDS011;68401;47.192;-1.552;2023-06-14T06:11:55;18.70;;;15.77;;
78995;SDS011;68401;47.192;-1.552;2023-06-14T06:14:20;22.63;;;19.35;;
78995;SDS011;68401;47.192;-1.552;2023-06-14T06:16:45;19.35;;;16.90;;
78995;SDS011;68401;47.192;-1.552;2023-06-14T06:19:11;20.23;;;17.13;;
78995;SDS011;68401;47.192;-1.552;2023-06-14T06:21:36;23.65;;;17.48;;
78995;SDS011;68401;47.192;-1.552;2023-06-14T06:24:02;20.52;;;17.77;;
78995;SDS011;68401;47.192;-1.552;2023-06-14T06:26:30;18.88;;;16.20;;
78995;SDS011;68401;47.192;-1.552;2023-06-14T06:28:56;18.85;;;16.85;;
78995;SDS011;68401;47.192;-1.552;2023-06-14T06:31:22;21.33;;;18.75;;
78995;SDS011;68401;47.192;-1.552;2023-06-14T06:33:47;19.17;;;16.48;;
78995;SDS011;68401;47.192;-1.552;2023-06-14T06:36:13;16.25;;;13.45;;
78995;SDS011;68401;47.192;-1.552;2023-06-14T06:38:38;18.88;;;16.67;;
78995;SDS011;68401;47.192;-1.552;2023-06-14T06:41:03;18.00;;;15.93;;
78995;SDS011;68401;47.192;-1.552;2023-06-14T06:43:29;22.58;;;19.05;;
78995;SDS011;68401;47.192;-1.552;2023-06-14T06:45:54;21.52;;;18.42;;
78995;SDS011;68401;47.192;-1.552;2023-06-14T06:48:20;19.80;;;17.77;;
78995;SDS011;68401;47.192;-1.552;2023-06-14T06:50:45;20.73;;;18.50;;
78995;SDS011;68401;47.192;-1.552;2023-06-14T06:53:11;16.45;;;14.75;;
78995;SDS011;68401;47.192;-1.552;2023-06-14T06:55:36;17.75;;;15.18;;
78995;SDS011;68401;47.192;-1.552;2023-06-14T06:58:01;17.45;;;14.98;;
78995;SDS011;68401;47.192;-1.552;2023-06-14T07:00:29;16.58;;;14.98;;
78995;SDS011;68401;47.192;-1.552;2023-06-14T07:02:55;23.30;;;16.67;;
78995;SDS011;68401;47.192;-1.552;2023-06-14T07:05:22;18.85;;;14.48;;
78995;SDS011;68401;47.192;-1.552;2023-06-14T07:07:47;19.10;;;17.30;;
78995;SDS011;68401;47.192;-1.552;2023-06-14T07:10:13;17.98;;;15.77;;
78995;SDS011;68401;47.192;-1.552;2023-06-14T07:12:38;17.60;;;15.80;;
78995;SDS011;68401;47.192;-1.552;2023-06-14T07:15:05;17.92;;;16.13;;
78995;SDS011;68401;47.192;-1.552;2023-06-14T07:17:32;16.30;;;14.60;;
78995;SDS011;68401;47.192;-1.552;2023-06-14T07:19:58;18.98;;;16.50;;
78995;SDS011;68401;47.192;-1.552;2023-06-14T07:22:24;18.50;;;16.50;;
78995;SDS011;68401;47.192;-1.552;2023-06-14T07:24:49;24.48;;;16.35;;
78995;SDS011;68401;47.192;-1.552;2023-06-14T07:27:15;18.25;;;15.43;;
78995;SDS011;68401;47.192;-1.552;2023-06-14T07:29:40;22.30;;;17.50;;
78995;SDS011;68401;47.192;-1.552;2023-06-14T07:32:06;17.33;;;15.52;;
78995;SDS011;68401;47.192;-1.552;2023-06-14T07:34:31;16.52;;;14.93;;
78995;SDS011;68401;47.192;-1.552;2023-06-14T07:36:57;14.77;;;13.05;;
78995;SDS011;68401;47.192;-1.552;2023-06-14T07:39:22;14.95;;;13.45;;
78995;SDS011;68401;47.192;-1.552;2023-06-14T07:41:48;16.65;;;14.75;;
78995;SDS011;68401;47.192;-1.552;2023-06-14T07:44:14;17.35;;;15.65;;
78995;SDS011;68401;47.192;-1.552;2023-06-14T07:46:39;17.80;;;15.85;;
78995;SDS011;68401;47.192;-1.552;2023-06-14T07:49:05;16.48;;;14.00;;
78995;SDS011;68401;47.192;-1.552;2023-06-14T07:51:31;17.63;;;15.82;;
78995;SDS011;68401;47.192;-1.552;2023-06-14T07:53:58;15.20;;;13.63;;
78995;SDS011;68401;47.192;-1.552;2023-06-14T07:56:25;16.27;;;14.18;;
78995;SDS011;68401;47.192;-1.552;2023-06-14T07:58:51;14.25;;;12.95;;
78995;SDS011;68401;47.192;-1.552;2023-06-14T08:01:16;18.05;;;16.02;;
78995;SDS011;68401;47.192;-1.552;2023-06-14T08:03:42;16.65;;;14.93;;
78995;SDS011;68401;47.192;-1.552;2023-06-14T08:06:08;15.63;;;13.95;;
78995;SDS011;68401;47.192;-1.552;2023-06-14T08:08:33;17.58;;;14.43;;
78995;SDS011;68401;47.192;-1.552;2023-06-14T08:10:59;16.83;;;14.30;;
78995;SDS011;68401;47.192;-1.552;2023-06-14T08:13:25;16.20;;;14.52;;
78995;SDS011;68401;47.192;-1.552;2023-06-14T08:15:50;14.98;;;13.55;;
78995;SDS011;68401;47.192;-1.552;2023-06-14T08:18:16;16.50;;;14.82;;
78995;SDS011;68401;47.192;-1.552;2023-06-14T08:20:41;18.20;;;15.68;;
78995;SDS011;68401;47.192;-1.552;2023-06-14T08:23:07;16.98;;;15.13;;
78995;SDS011;68401;47.192;-1.552;2023-06-14T08:25:33;14.50;;;12.77;;
78995;SDS011;68401;47.192;-1.552;2023-06-14T08:27:58;14.50;;;12.55;;
78995;SDS011;68401;47.192;-1.552;2023-06-14T08:30:24;13.30;;;11.43;;
78995;SDS011;68401;47.192;-1.552;2023-06-14T08:32:49;13.80;;;11.52;;
78995;SDS011;68401;47.192;-1.552;2023-06-14T08:35:16;12.73;;;11.43;;
78995;SDS011;68401;47.192;-1.552;2023-06-14T08:37:41;14.63;;;11.82;;
78995;SDS011;68401;47.192;-1.552;2023-06-14T08:40:20;15.23;;;13.60;;
78995;SDS011;68401;47.192;-1.552;2023-06-14T08:42:47;15.32;;;13.68;;
78995;SDS011;68401;47.192;-1.552;2023-06-14T08:45:22;14.25;;;11.27;;
78995;SDS011;68401;47.192;-1.552;2023-06-14T08:47:48;13.18;;;10.70;;
78995;SDS011;68401;47.192;-1.552;2023-06-14T08:50:21;12.73;;;11.52;;
78995;SDS011;68401;47.192;-1.552;2023-06-14T08:52:48;13.27;;;12.07;;
78995;SDS011;68401;47.192;-1.552;2023-06-14T08:55:18;13.93;;;11.60;;
78995;SDS011;68401;47.192;-1.552;2023-06-14T08:57:45;17.50;;;11.95;;
78995;SDS011;68401;47.192;-1.552;2023-06-14T09:00:12;12.75;;;11.45;;
78995;SDS011;68401;47.192;-1.552;2023-06-14T09:05:08;13.70;;;11.50;;
78995;SDS011;68401;47.192;-1.552;2023-06-14T09:07:35;12.07;;;10.73;;
78995;SDS011;68401;47.192;-1.552;2023-06-14T09:10:10;14.05;;;10.40;;
78995;SDS011;68401;47.192;-1.552;2023-06-14T09:12:37;11.57;;;10.40;;
78995;SDS011;68401;47.192;-1.552;2023-06-14T09:15:06;14.52;;;11.10;;
78995;SDS011;68401;47.192;-1.552;2023-06-14T09:17:33;11.57;;;9.88;;
78995;SDS011;68401;47.192;-1.552;2023-06-14T09:20:00;12.40;;;10.00;;
78995;SDS011;68401;47.192;-1.552;2023-06-14T09:22:31;10.65;;;9.65;;
78995;SDS011;68401;47.192;-1.552;2023-06-14T09:24:57;11.68;;;9.32;;
78995;SDS011;68401;47.192;-1.552;2023-06-14T09:27:22;11.00;;;9.90;;
78995;SDS011;68401;47.192;-1.552;2023-06-14T09:29:47;10.40;;;9.15;;
78995;SDS011;68401;47.192;-1.552;2023-06-14T09:32:13;10.40;;;9.35;;
78995;SDS011;68401;47.192;-1.552;2023-06-14T09:34:39;10.73;;;8.65;;
78995;SDS011;68401;47.192;-1.552;2023-06-14T09:37:05;8.63;;;7.50;;
78995;SDS011;68401;47.192;-1.552;2023-06-14T09:39:30;13.15;;;10.00;;
78995;SDS011;68401;47.192;-1.552;2023-06-14T09:41:55;11.95;;;8.80;;
78995;SDS011;68401;47.192;-1.552;2023-06-14T09:44:21;10.07;;;9.07;;
78995;SDS011;68401;47.192;-1.552;2023-06-14T09:46:47;9.65;;;8.75;;
78995;SDS011;68401;47.192;-1.552;2023-06-14T09:49:13;10.07;;;7.53;;
78995;SDS011;68401;47.192;-1.552;2023-06-14T09:51:42;9.55;;;8.55;;
78995;SDS011;68401;47.192;-1.552;2023-06-14T09:54:08;11.18;;;8.77;;
78995;SDS011;68401;47.192;-1.552;2023-06-14T09:56:41;9.10;;;8.20;;
78995;SDS011;68401;47.192;-1.552;2023-06-14T09:59:08;10.90;;;9.85;;
78995;SDS011;68401;47.192;-1.552;2023-06-14T10:01:35;11.15;;;8.38;;
78995;SDS011;68401;47.192;-1.552;2023-06-14T10:04:02;14.60;;;8.75;;
78995;SDS011;68401;47.192;-1.552;2023-06-14T10:06:29;11.48;;;7.93;;
78995;SDS011;68401;47.192;-1.552;2023-06-14T10:08:59;9.93;;;7.43;;
78995;SDS011;68401;47.192;-1.552;2023-06-14T10:11:25;8.85;;;7.70;;
78995;SDS011;68401;47.192;-1.552;2023-06-14T10:13:51;8.07;;;7.25;;
78995;SDS011;68401;47.192;-1.552;2023-06-14T10:16:22;8.45;;;7.72;;
78995;SDS011;68401;47.192;-1.552;2023-06-14T10:18:59;7.88;;;7.13;;
78995;SDS011;68401;47.192;-1.552;2023-06-14T10:21:41;11.10;;;7.97;;
78995;SDS011;68401;47.192;-1.552;2023-06-14T10:24:23;9.73;;;8.13;;
78995;SDS011;68401;47.192;-1.552;2023-06-14T10:26:54;9.18;;;8.18;;
78995;SDS011;68401;47.192;-1.552;2023-06-14T10:29:22;9.20;;;8.40;;
78995;SDS011;68401;47.192;-1.552;2023-06-14T10:31:48;10.63;;;8.32;;
78995;SDS011;68401;47.192;-1.552;2023-06-14T10:34:22;9.55;;;8.13;;
78995;SDS011;68401;47.192;-1.552;2023-06-14T10:39:33;8.32;;;7.47;;
78995;SDS011;68401;47.192;-1.552;2023-06-14T10:42:04;8.25;;;7.25;;
78995;SDS011;68401;47.192;-1.552;2023-06-14T10:47:05;9.00;;;7.93;;
78995;SDS011;68401;47.192;-1.552;2023-06-14T10:52:11;8.65;;;7.85;;
78995;SDS011;68401;47.192;-1.552;2023-06-14T10:57:39;8.45;;;7.57;;
78995;SDS011;68401;47.192;-1.552;2023-06-14T11:00:24;9.15;;;7.93;;
78995;SDS011;68401;47.192;-1.552;2023-06-14T11:05:43;8.38;;;7.60;;
78995;SDS011;68401;47.192;-1.552;2023-06-14T11:11:01;15.25;;;13.90;;
78995;SDS011;68401;47.192;-1.552;2023-06-14T11:13:31;11.05;;;8.15;;
78995;SDS011;68401;47.192;-1.552;2023-06-14T11:15:56;9.02;;;7.75;;
78995;SDS011;68401;47.192;-1.552;2023-06-14T11:18:23;7.78;;;7.07;;
78995;SDS011;68401;47.192;-1.552;2023-06-14T11:20:55;7.13;;;6.43;;
78995;SDS011;68401;47.192;-1.552;2023-06-14T11:23:21;8.23;;;6.70;;
78995;SDS011;68401;47.192;-1.552;2023-06-14T11:25:50;7.07;;;6.45;;
78995;SDS011;68401;47.192;-1.552;2023-06-14T11:28:16;7.22;;;6.38;;
78995;SDS011;68401;47.192;-1.552;2023-06-14T11:30:41;8.80;;;6.32;;
78995;SDS011;68401;47.192;-1.552;2023-06-14T11:33:09;7.20;;;6.50;;
78995;SDS011;68401;47.192;-1.552;2023-06-14T11:35:34;8.63;;;6.50;;
78995;SDS011;68401;47.192;-1.552;2023-06-14T11:38:01;7.85;;;6.80;;
78995;SDS011;68401;47.192;-1.552;2023-06-14T11:40:27;7.32;;;6.60;;
78995;SDS011;68401;47.192;-1.552;2023-06-14T11:42:59;11.50;;;6.70;;
78995;SDS011;68401;47.192;-1.552;2023-06-14T11:45:25;8.05;;;7.18;;
78995;SDS011;68401;47.192;-1.552;2023-06-14T11:47:51;9.35;;;6.18;;
78995;SDS011;68401;47.192;-1.552;2023-06-14T11:50:16;8.30;;;6.30;;
78995;SDS011;68401;47.192;-1.552;2023-06-14T11:52:42;8.38;;;7.18;;
78995;SDS011;68401;47.192;-1.552;2023-06-14T11:55:08;7.90;;;6.45;;
78995;SDS011;68401;47.192;-1.552;2023-06-14T11:57:34;7.45;;;6.75;;
78995;SDS011;68401;47.192;-1.552;2023-06-14T12:00:02;7.30;;;6.38;;
78995;SDS011;68401;47.192;-1.552;2023-06-14T12:02:31;9.77;;;6.63;;
78995;SDS011;68401;47.192;-1.552;2023-06-14T12:05:03;8.23;;;7.43;;
78995;SDS011;68401;47.192;-1.552;2023-06-14T12:07:30;8.25;;;7.43;;
78995;SDS011;68401;47.192;-1.552;2023-06-14T12:12:21;7.80;;;6.97;;
78995;SDS011;68401;47.192;-1.552;2023-06-14T12:14:47;8.10;;;6.70;;
78995;SDS011;68401;47.192;-1.552;2023-06-14T12:17:16;10.13;;;6.78;;
78995;SDS011;68401;47.192;-1.552;2023-06-14T12:19:42;7.32;;;6.63;;
78995;SDS011;68401;47.192;-1.552;2023-06-14T12:22:12;8.23;;;7.20;;
78995;SDS011;68401;47.192;-1.552;2023-06-14T12:24:38;7.85;;;6.55;;
78995;SDS011;68401;47.192;-1.552;2023-06-14T12:27:04;6.88;;;6.22;;
78995;SDS011;68401;47.192;-1.552;2023-06-14T12:29:30;7.03;;;6.32;;
78995;SDS011;68401;47.192;-1.552;2023-06-14T12:31:56;7.65;;;6.80;;
78995;SDS011;68401;47.192;-1.552;2023-06-14T12:34:22;7.68;;;6.70;;
78995;SDS011;68401;47.192;-1.552;2023-06-14T12:36:49;8.10;;;6.68;;
78995;SDS011;68401;47.192;-1.552;2023-06-14T12:39:15;7.40;;;6.43;;
78995;SDS011;68401;47.192;-1.552;2023-06-14T12:41:40;10.60;;;8.18;;
78995;SDS011;68401;47.192;-1.552;2023-06-14T12:44:06;8.18;;;6.72;;
78995;SDS011;68401;47.192;-1.552;2023-06-14T12:46:32;8.68;;;6.80;;
78995;SDS011;68401;47.192;-1.552;2023-06-14T12:48:58;8.02;;;7.22;;
78995;SDS011;68401;47.192;-1.552;2023-06-14T12:51:23;7.90;;;7.18;;
78995;SDS011;68401;47.192;-1.552;2023-06-14T12:53:50;7.82;;;7.05;;
78995;SDS011;68401;47.192;-1.552;2023-06-14T12:56:15;7.60;;;6.40;;
78995;SDS011;68401;47.192;-1.552;2023-06-14T12:58:41;7.30;;;6.35;;
78995;SDS011;68401;47.192;-1.552;2023-06-14T13:01:07;8.55;;;7.10;;
78995;SDS011;68401;47.192;-1.552;2023-06-14T13:03:32;9.02;;;6.93;;
78995;SDS011;68401;47.192;-1.552;2023-06-14T13:05:59;8.10;;;7.18;;
78995;SDS011;68401;47.192;-1.552;2023-06-14T13:08:25;9.05;;;6.68;;
78995;SDS011;68401;47.192;-1.552;2023-06-14T13:10:51;7.95;;;7.10;;
78995;SDS011;68401;47.192;-1.552;2023-06-14T13:13:16;7.95;;;7.18;;
78995;SDS011;68401;47.192;-1.552;2023-06-14T13:15:41;7.57;;;6.70;;
78995;SDS011;68401;47.192;-1.552;2023-06-14T13:18:08;7.28;;;6.57;;
78995;SDS011;68401;47.192;-1.552;2023-06-14T13:20:34;12.52;;;8.07;;
78995;SDS011;68401;47.192;-1.552;2023-06-14T13:22:59;7.35;;;6.57;;
78995;SDS011;68401;47.192;-1.552;2023-06-14T13:25:25;10.25;;;6.90;;
78995;SDS011;68401;47.192;-1.552;2023-06-14T13:27:50;9.90;;;8.60;;
78995;SDS011;68401;47.192;-1.552;2023-06-14T13:30:15;10.38;;;7.82;;
78995;SDS011;68401;47.192;-1.552;2023-06-14T13:32:42;9.07;;;6.82;;
78995;SDS011;68401;47.192;-1.552;2023-06-14T13:35:08;10.30;;;7.15;;
78995;SDS011;68401;47.192;-1.552;2023-06-14T13:37:33;7.50;;;6.80;;
78995;SDS011;68401;47.192;-1.552;2023-06-14T13:39:59;6.53;;;5.80;;
78995;SDS011;68401;47.192;-1.552;2023-06-14T13:42:24;7.45;;;6.45;;
78995;SDS011;68401;47.192;-1.552;2023-06-14T13:44:50;12.00;;;6.88;;
78995;SDS011;68401;47.192;-1.552;2023-06-14T13:47:16;7.15;;;6.45;;
78995;SDS011;68401;47.192;-1.552;2023-06-14T13:49:42;6.30;;;5.70;;
78995;SDS011;68401;47.192;-1.552;2023-06-14T13:52:07;7.57;;;6.07;;
78995;SDS011;68401;47.192;-1.552;2023-06-14T13:54:33;8.00;;;6.40;;
78995;SDS011;68401;47.192;-1.552;2023-06-14T13:56:58;6.55;;;5.95;;
78995;SDS011;68401;47.192;-1.552;2023-06-14T13:59:24;7.05;;;6.35;;
78995;SDS011;68401;47.192;-1.552;2023-06-14T14:01:49;8.23;;;6.25;;
78995;SDS011;68401;47.192;-1.552;2023-06-14T14:04:15;6.60;;;5.97;;
78995;SDS011;68401;47.192;-1.552;2023-06-14T14:06:40;6.85;;;6.20;;
78995;SDS011;68401;47.192;-1.552;2023-06-14T14:09:06;7.03;;;6.30;;
78995;SDS011;68401;47.192;-1.552;2023-06-14T14:11:32;7.25;;;6.38;;
78995;SDS011;68401;47.192;-1.552;2023-06-14T14:13:58;8.07;;;6.55;;
78995;SDS011;68401;47.192;-1.552;2023-06-14T14:16:24;9.60;;;6.22;;
78995;SDS011;68401;47.192;-1.552;2023-06-14T14:18:49;7.70;;;6.95;;
78995;SDS011;68401;47.192;-1.552;2023-06-14T14:21:14;7.53;;;6.80;;
78995;SDS011;68401;47.192;-1.552;2023-06-14T14:23:40;7.70;;;7.00;;
78995;SDS011;68401;47.192;-1.552;2023-06-14T14:26:05;6.45;;;5.85;;
78995;SDS011;68401;47.192;-1.552;2023-06-14T14:28:31;6.28;;;5.68;;
78995;SDS011;68401;47.192;-1.552;2023-06-14T14:30:57;8.63;;;7.07;;
78995;SDS011;68401;47.192;-1.552;2023-06-14T14:33:23;7.85;;;6.80;;
78995;SDS011;68401;47.192;-1.552;2023-06-14T14:35:48;6.55;;;5.95;;
78995;SDS011;68401;47.192;-1.552;2023-06-14T14:38:14;9.85;;;8.38;;
78995;SDS011;68401;47.192;-1.552;2023-06-14T14:40:43;8.75;;;7.68;;
78995;SDS011;68401;47.192;-1.552;2023-06-14T14:43:09;8.57;;;7.30;;